sensor_id;sensor_type;location;lat;lon;timestamp;temperature;humidity
23991;DHT22;12205;50.600;4.608;2022-11-15T00:01:36;11.90;99.90
23991;DHT22;12205;50.600;4.608;2022-11-15T00:04:22;11.90;99.90
23991;DHT22;12205;50.600;4.608;2022-11-15T00:07:08;12.00;99.90
23991;DHT22;12205;50.600;4.608;2022-11-15T00:09:55;12.00;99.90
23991;DHT22;12205;50.600;4.608;2022-11-15T00:12:40;12.00;99.90
23991;DHT22;12205;50.600;4.608;2022-11-15T00:15:26;12.00;99.90
23991;DHT22;12205;50.600;4.608;2022-11-15T00:18:12;12.00;99.90
23991;DHT22;12205;50.600;4.608;2022-11-15T00:21:04;12.00;99.90
23991;DHT22;12205;50.600;4.608;2022-11-15T00:23:50;12.00;99.90
23991;DHT22;12205;50.600;4.608;2022-11-15T00:26:37;12.00;99.90
23991;DHT22;12205;50.600;4.608;2022-11-15T00:29:23;12.10;99.90
23991;DHT22;12205;50.600;4.608;2022-11-15T00:32:09;12.10;99.90
23991;DHT22;12205;50.600;4.608;2022-11-15T00:34:55;12.00;99.90
23991;DHT22;12205;50.600;4.608;2022-11-15T00:37:41;12.00;99.90
23991;DHT22;12205;50.600;4.608;2022-11-15T00:40:26;12.10;99.90
23991;DHT22;12205;50.600;4.608;2022-11-15T00:43:14;12.10;99.90
23991;DHT22;12205;50.600;4.608;2022-11-15T00:45:59;12.10;99.90
23991;DHT22;12205;50.600;4.608;2022-11-15T00:48:46;12.00;99.90
23991;DHT22;12205;50.600;4.608;2022-11-15T00:51:32;12.10;99.90
23991;DHT22;12205;50.600;4.608;2022-11-15T00:54:17;12.10;99.90
23991;DHT22;12205;50.600;4.608;2022-11-15T00:57:03;12.10;99.90
23991;DHT22;12205;50.600;4.608;2022-11-15T00:59:50;12.10;99.90
23991;DHT22;12205;50.600;4.608;2022-11-15T01:02:35;12.20;99.90
23991;DHT22;12205;50.600;4.608;2022-11-15T01:05:21;12.20;99.90
23991;DHT22;12205;50.600;4.608;2022-11-15T01:08:12;12.20;99.90
23991;DHT22;12205;50.600;4.608;2022-11-15T01:11:01;12.20;99.90
23991;DHT22;12205;50.600;4.608;2022-11-15T01:13:47;12.30;99.90
23991;DHT22;12205;50.600;4.608;2022-11-15T01:16:34;12.30;99.90
23991;DHT22;12205;50.600;4.608;2022-11-15T01:19:19;12.30;99.90
23991;DHT22;12205;50.600;4.608;2022-11-15T01:22:05;12.30;99.90
23991;DHT22;12205;50.600;4.608;2022-11-15T01:24:51;12.40;99.90
23991;DHT22;12205;50.600;4.608;2022-11-15T01:27:37;12.40;99.90
23991;DHT22;12205;50.600;4.608;2022-11-15T01:30:22;12.40;99.90
23991;DHT22;12205;50.600;4.608;2022-11-15T01:33:09;12.30;99.90
23991;DHT22;12205;50.600;4.608;2022-11-15T01:35:55;12.30;99.90
23991;DHT22;12205;50.600;4.608;2022-11-15T01:38:41;12.30;99.90
23991;DHT22;12205;50.600;4.608;2022-11-15T01:41:29;12.20;99.90
23991;DHT22;12205;50.600;4.608;2022-11-15T01:44:41;12.30;99.90
23991;DHT22;12205;50.600;4.608;2022-11-15T01:47:30;12.20;99.90
23991;DHT22;12205;50.600;4.608;2022-11-15T01:50:23;12.20;99.90
23991;DHT22;12205;50.600;4.608;2022-11-15T01:53:13;12.20;99.90
23991;DHT22;12205;50.600;4.608;2022-11-15T01:56:02;12.20;99.90
23991;DHT22;12205;50.600;4.608;2022-11-15T01:58:51;12.20;99.90
23991;DHT22;12205;50.600;4.608;2022-11-15T02:01:40;12.10;99.90
23991;DHT22;12205;50.600;4.608;2022-11-15T02:04:28;12.10;99.90
23991;DHT22;12205;50.600;4.608;2022-11-15T02:07:19;12.10;99.90
23991;DHT22;12205;50.600;4.608;2022-11-15T02:10:08;12.10;99.90
23991;DHT22;12205;50.600;4.608;2022-11-15T02:12:56;12.10;99.90
23991;DHT22;12205;50.600;4.608;2022-11-15T02:15:50;12.10;99.90
23991;DHT22;12205;50.600;4.608;2022-11-15T02:18:48;12.10;99.90
23991;DHT22;12205;50.600;4.608;2022-11-15T02:21:42;12.10;99.90
23991;DHT22;12205;50.600;4.608;2022-11-15T02:24:49;12.10;99.90
23991;DHT22;12205;50.600;4.608;2022-11-15T02:28:05;12.10;99.90
23991;DHT22;12205;50.600;4.608;2022-11-15T02:31:04;12.10;99.90
23991;DHT22;12205;50.600;4.608;2022-11-15T02:34:01;12.10;99.90
23991;DHT22;12205;50.600;4.608;2022-11-15T02:37:01;12.10;99.90
23991;DHT22;12205;50.600;4.608;2022-11-15T02:39:59;12.20;99.90
23991;DHT22;12205;50.600;4.608;2022-11-15T02:42:55;12.20;99.90
23991;DHT22;12205;50.600;4.608;2022-11-15T02:46:19;12.20;99.90
23991;DHT22;12205;50.600;4.608;2022-11-15T02:49:31;12.20;99.90
23991;DHT22;12205;50.600;4.608;2022-11-15T02:52:20;12.20;99.90
23991;DHT22;12205;50.600;4.608;2022-11-15T02:55:26;12.20;99.90
23991;DHT22;12205;50.600;4.608;2022-11-15T03:01:53;12.20;99.90
23991;DHT22;12205;50.600;4.608;2022-11-15T03:04:53;12.20;99.90
23991;DHT22;12205;50.600;4.608;2022-11-15T03:07:46;12.10;99.90
23991;DHT22;12205;50.600;4.608;2022-11-15T03:10:45;12.20;99.90
23991;DHT22;12205;50.600;4.608;2022-11-15T03:13:39;12.20;99.90
23991;DHT22;12205;50.600;4.608;2022-11-15T03:16:36;12.10;99.90
23991;DHT22;12205;50.600;4.608;2022-11-15T03:19:29;12.10;99.90
23991;DHT22;12205;50.600;4.608;2022-11-15T03:22:22;12.00;99.90
23991;DHT22;12205;50.600;4.608;2022-11-15T03:25:17;11.90;99.90
23991;DHT22;12205;50.600;4.608;2022-11-15T03:28:06;11.90;99.90
23991;DHT22;12205;50.600;4.608;2022-11-15T03:30:55;11.90;99.90
23991;DHT22;12205;50.600;4.608;2022-11-15T03:33:42;11.90;99.90
23991;DHT22;12205;50.600;4.608;2022-11-15T03:36:31;11.80;99.90
23991;DHT22;12205;50.600;4.608;2022-11-15T03:39:20;11.80;99.90
23991;DHT22;12205;50.600;4.608;2022-11-15T03:42:15;11.80;99.90
23991;DHT22;12205;50.600;4.608;2022-11-15T03:45:13;11.70;99.90
23991;DHT22;12205;50.600;4.608;2022-11-15T03:48:05;11.70;99.90
23991;DHT22;12205;50.600;4.608;2022-11-15T03:50:56;11.60;99.90
23991;DHT22;12205;50.600;4.608;2022-11-15T03:53:43;11.60;99.90
23991;DHT22;12205;50.600;4.608;2022-11-15T03:56:30;11.50;99.90
23991;DHT22;12205;50.600;4.608;2022-11-15T03:59:16;11.40;99.90
23991;DHT22;12205;50.600;4.608;2022-11-15T04:02:02;11.40;99.90
23991;DHT22;12205;50.600;4.608;2022-11-15T04:04:47;11.30;99.90
23991;DHT22;12205;50.600;4.608;2022-11-15T04:07:33;11.30;99.90
23991;DHT22;12205;50.600;4.608;2022-11-15T04:10:20;11.30;99.90
23991;DHT22;12205;50.600;4.608;2022-11-15T04:13:05;11.20;99.90
23991;DHT22;12205;50.600;4.608;2022-11-15T04:15:51;11.20;99.90
23991;DHT22;12205;50.600;4.608;2022-11-15T04:18:37;11.20;99.90
23991;DHT22;12205;50.600;4.608;2022-11-15T04:21:22;11.10;99.90
23991;DHT22;12205;50.600;4.608;2022-11-15T04:24:26;11.10;99.90
23991;DHT22;12205;50.600;4.608;2022-11-15T04:27:13;11.20;99.90
23991;DHT22;12205;50.600;4.608;2022-11-15T04:29:59;11.10;99.90
23991;DHT22;12205;50.600;4.608;2022-11-15T04:32:44;11.10;99.90
23991;DHT22;12205;50.600;4.608;2022-11-15T04:35:30;11.10;99.90
23991;DHT22;12205;50.600;4.608;2022-11-15T04:38:16;11.00;99.90
23991;DHT22;12205;50.600;4.608;2022-11-15T04:41:02;11.10;99.90
23991;DHT22;12205;50.600;4.608;2022-11-15T04:43:50;11.00;99.90
23991;DHT22;12205;50.600;4.608;2022-11-15T04:46:35;11.00;99.90
23991;DHT22;12205;50.600;4.608;2022-11-15T04:49:21;11.00;99.90
23991;DHT22;12205;50.600;4.608;2022-11-15T04:52:07;10.90;99.90
23991;DHT22;12205;50.600;4.608;2022-11-15T04:54:53;10.80;99.90
23991;DHT22;12205;50.600;4.608;2022-11-15T04:57:38;10.90;99.90
23991;DHT22;12205;50.600;4.608;2022-11-15T05:00:26;10.80;99.90
23991;DHT22;12205;50.600;4.608;2022-11-15T05:03:13;10.80;99.90
23991;DHT22;12205;50.600;4.608;2022-11-15T05:06:16;10.80;99.90
23991;DHT22;12205;50.600;4.608;2022-11-15T05:09:02;10.80;99.90
23991;DHT22;12205;50.600;4.608;2022-11-15T05:11:48;10.80;99.90
23991;DHT22;12205;50.600;4.608;2022-11-15T05:14:34;10.80;99.90
23991;DHT22;12205;50.600;4.608;2022-11-15T05:17:21;10.80;99.90
23991;DHT22;12205;50.600;4.608;2022-11-15T05:20:09;10.80;99.90
23991;DHT22;12205;50.600;4.608;2022-11-15T05:22:55;10.80;99.90
23991;DHT22;12205;50.600;4.608;2022-11-15T05:25:40;10.70;99.90
23991;DHT22;12205;50.600;4.608;2022-11-15T05:28:26;10.70;99.90
23991;DHT22;12205;50.600;4.608;2022-11-15T05:31:13;10.60;99.90
23991;DHT22;12205;50.600;4.608;2022-11-15T05:34:04;10.60;99.90
23991;DHT22;12205;50.600;4.608;2022-11-15T05:36:50;10.60;99.90
23991;DHT22;12205;50.600;4.608;2022-11-15T05:39:35;10.50;99.90
23991;DHT22;12205;50.600;4.608;2022-11-15T05:42:21;10.50;99.90
23991;DHT22;12205;50.600;4.608;2022-11-15T05:45:08;10.50;99.90
23991;DHT22;12205;50.600;4.608;2022-11-15T05:47:56;10.50;99.90
23991;DHT22;12205;50.600;4.608;2022-11-15T05:50:46;10.50;99.90
23991;DHT22;12205;50.600;4.608;2022-11-15T05:53:33;10.40;99.90
23991;DHT22;12205;50.600;4.608;2022-11-15T05:56:21;10.40;99.90
23991;DHT22;12205;50.600;4.608;2022-11-15T05:59:08;10.40;99.90
23991;DHT22;12205;50.600;4.608;2022-11-15T06:01:54;10.40;99.90
23991;DHT22;12205;50.600;4.608;2022-11-15T06:04:40;10.30;99.90
23991;DHT22;12205;50.600;4.608;2022-11-15T06:07:28;10.40;99.90
23991;DHT22;12205;50.600;4.608;2022-11-15T06:10:14;10.40;99.90
23991;DHT22;12205;50.600;4.608;2022-11-15T06:13:01;10.40;99.90
23991;DHT22;12205;50.600;4.608;2022-11-15T06:15:48;10.40;99.90
23991;DHT22;12205;50.600;4.608;2022-11-15T06:18:34;10.50;99.90
23991;DHT22;12205;50.600;4.608;2022-11-15T06:21:21;10.40;99.90
23991;DHT22;12205;50.600;4.608;2022-11-15T06:24:09;10.40;99.90
23991;DHT22;12205;50.600;4.608;2022-11-15T06:26:54;10.40;99.90
23991;DHT22;12205;50.600;4.608;2022-11-15T06:29:41;10.30;99.90
23991;DHT22;12205;50.600;4.608;2022-11-15T06:32:29;10.30;99.90
23991;DHT22;12205;50.600;4.608;2022-11-15T06:35:15;10.30;99.90
23991;DHT22;12205;50.600;4.608;2022-11-15T06:38:06;10.20;99.90
23991;DHT22;12205;50.600;4.608;2022-11-15T06:40:54;10.20;99.90
23991;DHT22;12205;50.600;4.608;2022-11-15T06:43:40;10.10;99.90
23991;DHT22;12205;50.600;4.608;2022-11-15T06:46:26;10.00;99.90
23991;DHT22;12205;50.600;4.608;2022-11-15T06:49:12;10.00;99.90
23991;DHT22;12205;50.600;4.608;2022-11-15T06:51:58;9.90;99.90
23991;DHT22;12205;50.600;4.608;2022-11-15T06:54:44;9.80;99.90
23991;DHT22;12205;50.600;4.608;2022-11-15T06:57:31;9.80;99.90
23991;DHT22;12205;50.600;4.608;2022-11-15T07:00:18;9.70;99.90
23991;DHT22;12205;50.600;4.608;2022-11-15T07:03:05;9.60;99.90
23991;DHT22;12205;50.600;4.608;2022-11-15T07:05:52;9.60;99.90
23991;DHT22;12205;50.600;4.608;2022-11-15T07:08:39;9.50;99.90
23991;DHT22;12205;50.600;4.608;2022-11-15T07:11:25;9.40;99.90
23991;DHT22;12205;50.600;4.608;2022-11-15T07:14:12;9.40;99.90
23991;DHT22;12205;50.600;4.608;2022-11-15T07:16:58;9.40;99.90
23991;DHT22;12205;50.600;4.608;2022-11-15T07:19:44;9.30;99.90
23991;DHT22;12205;50.600;4.608;2022-11-15T07:22:29;9.30;99.90
23991;DHT22;12205;50.600;4.608;2022-11-15T07:25:15;9.30;99.90
23991;DHT22;12205;50.600;4.608;2022-11-15T07:28:01;9.30;99.90
23991;DHT22;12205;50.600;4.608;2022-11-15T07:30:49;9.30;99.90
23991;DHT22;12205;50.600;4.608;2022-11-15T07:33:35;9.20;99.90
23991;DHT22;12205;50.600;4.608;2022-11-15T07:36:21;9.20;99.90
23991;DHT22;12205;50.600;4.608;2022-11-15T07:39:06;9.20;99.90
23991;DHT22;12205;50.600;4.608;2022-11-15T07:41:52;9.20;99.90
23991;DHT22;12205;50.600;4.608;2022-11-15T07:44:58;9.20;99.90
23991;DHT22;12205;50.600;4.608;2022-11-15T07:47:46;9.30;99.90
23991;DHT22;12205;50.600;4.608;2022-11-15T07:50:33;9.30;99.90
23991;DHT22;12205;50.600;4.608;2022-11-15T07:53:19;9.30;99.90
23991;DHT22;12205;50.600;4.608;2022-11-15T07:56:06;9.30;99.90
23991;DHT22;12205;50.600;4.608;2022-11-15T07:58:52;9.30;99.90
23991;DHT22;12205;50.600;4.608;2022-11-15T08:01:37;9.30;99.90
23991;DHT22;12205;50.600;4.608;2022-11-15T08:04:24;9.40;99.90
23991;DHT22;12205;50.600;4.608;2022-11-15T08:07:10;9.40;99.90
23991;DHT22;12205;50.600;4.608;2022-11-15T08:09:56;9.40;99.90
23991;DHT22;12205;50.600;4.608;2022-11-15T08:12:42;9.40;99.90
23991;DHT22;12205;50.600;4.608;2022-11-15T08:15:28;9.50;99.90
23991;DHT22;12205;50.600;4.608;2022-11-15T08:18:15;9.50;99.90
23991;DHT22;12205;50.600;4.608;2022-11-15T08:21:03;9.50;99.90
23991;DHT22;12205;50.600;4.608;2022-11-15T08:23:50;9.50;99.90
23991;DHT22;12205;50.600;4.608;2022-11-15T08:26:36;9.50;99.90
23991;DHT22;12205;50.600;4.608;2022-11-15T08:29:22;9.60;99.90
23991;DHT22;12205;50.600;4.608;2022-11-15T08:32:08;9.60;99.90
23991;DHT22;12205;50.600;4.608;2022-11-15T08:34:54;9.60;99.90
23991;DHT22;12205;50.600;4.608;2022-11-15T08:37:41;9.60;99.90
23991;DHT22;12205;50.600;4.608;2022-11-15T08:40:26;9.70;99.90
23991;DHT22;12205;50.600;4.608;2022-11-15T08:43:12;9.70;99.90
23991;DHT22;12205;50.600;4.608;2022-11-15T08:45:57;9.80;99.90
23991;DHT22;12205;50.600;4.608;2022-11-15T08:48:44;9.80;99.90
23991;DHT22;12205;50.600;4.608;2022-11-15T08:51:29;9.90;99.90
23991;DHT22;12205;50.600;4.608;2022-11-15T08:54:16;9.90;99.90
23991;DHT22;12205;50.600;4.608;2022-11-15T08:57:02;9.90;99.90
23991;DHT22;12205;50.600;4.608;2022-11-15T08:59:48;10.00;99.90
23991;DHT22;12205;50.600;4.608;2022-11-15T09:02:33;10.10;99.90
23991;DHT22;12205;50.600;4.608;2022-11-15T09:05:19;10.10;99.90
23991;DHT22;12205;50.600;4.608;2022-11-15T09:08:05;10.20;99.90
23991;DHT22;12205;50.600;4.608;2022-11-15T09:10:52;10.20;99.90
23991;DHT22;12205;50.600;4.608;2022-11-15T09:13:38;10.20;99.90
23991;DHT22;12205;50.600;4.608;2022-11-15T09:16:23;10.20;99.90
23991;DHT22;12205;50.600;4.608;2022-11-15T09:19:09;10.20;99.90
23991;DHT22;12205;50.600;4.608;2022-11-15T09:21:55;10.20;99.90
23991;DHT22;12205;50.600;4.608;2022-11-15T09:24:41;10.20;99.90
23991;DHT22;12205;50.600;4.608;2022-11-15T09:27:29;10.30;99.90
23991;DHT22;12205;50.600;4.608;2022-11-15T09:30:15;10.30;99.90
23991;DHT22;12205;50.600;4.608;2022-11-15T09:33:06;10.40;99.90
23991;DHT22;12205;50.600;4.608;2022-11-15T09:35:53;10.40;99.90
23991;DHT22;12205;50.600;4.608;2022-11-15T09:38:38;10.40;99.90
23991;DHT22;12205;50.600;4.608;2022-11-15T09:41:43;10.40;99.90
23991;DHT22;12205;50.600;4.608;2022-11-15T09:44:41;10.50;99.90
23991;DHT22;12205;50.600;4.608;2022-11-15T09:48:00;10.50;99.90
23991;DHT22;12205;50.600;4.608;2022-11-15T09:50:55;10.50;99.90
23991;DHT22;12205;50.600;4.608;2022-11-15T09:53:29;10.50;99.90
23991;DHT22;12205;50.600;4.608;2022-11-15T09:56:00;10.60;99.90
23991;DHT22;12205;50.600;4.608;2022-11-15T09:58:35;10.60;99.90
23991;DHT22;12205;50.600;4.608;2022-11-15T10:01:14;10.70;99.90
23991;DHT22;12205;50.600;4.608;2022-11-15T10:03:45;10.70;99.90
23991;DHT22;12205;50.600;4.608;2022-11-15T10:06:21;10.80;99.90
23991;DHT22;12205;50.600;4.608;2022-11-15T10:08:55;10.80;99.90
23991;DHT22;12205;50.600;4.608;2022-11-15T10:11:29;10.90;99.90
23991;DHT22;12205;50.600;4.608;2022-11-15T10:14:00;11.00;99.90
23991;DHT22;12205;50.600;4.608;2022-11-15T10:19:37;11.20;99.90
23991;DHT22;12205;50.600;4.608;2022-11-15T10:22:18;11.30;99.90
23991;DHT22;12205;50.600;4.608;2022-11-15T10:24:58;11.40;99.90
23991;DHT22;12205;50.600;4.608;2022-11-15T10:27:38;11.50;99.90
23991;DHT22;12205;50.600;4.608;2022-11-15T10:30:11;11.60;99.90
23991;DHT22;12205;50.600;4.608;2022-11-15T10:32:44;11.70;99.90
23991;DHT22;12205;50.600;4.608;2022-11-15T10:35:18;11.80;99.90
23991;DHT22;12205;50.600;4.608;2022-11-15T10:37:48;11.80;99.90
23991;DHT22;12205;50.600;4.608;2022-11-15T10:40:18;11.90;99.90
23991;DHT22;12205;50.600;4.608;2022-11-15T10:42:47;12.00;99.90
23991;DHT22;12205;50.600;4.608;2022-11-15T10:45:29;12.00;99.90
23991;DHT22;12205;50.600;4.608;2022-11-15T10:48:26;12.10;99.90
23991;DHT22;12205;50.600;4.608;2022-11-15T10:50:54;12.10;99.90
23991;DHT22;12205;50.600;4.608;2022-11-15T10:53:29;12.20;99.90
23991;DHT22;12205;50.600;4.608;2022-11-15T10:56:04;12.20;99.90
23991;DHT22;12205;50.600;4.608;2022-11-15T10:58:37;12.30;99.90
23991;DHT22;12205;50.600;4.608;2022-11-15T11:01:14;12.50;99.90
23991;DHT22;12205;50.600;4.608;2022-11-15T11:03:57;12.60;99.90
23991;DHT22;12205;50.600;4.608;2022-11-15T11:06:25;12.60;99.90
23991;DHT22;12205;50.600;4.608;2022-11-15T11:08:55;12.70;99.90
23991;DHT22;12205;50.600;4.608;2022-11-15T11:11:24;12.70;99.90
23991;DHT22;12205;50.600;4.608;2022-11-15T11:13:52;12.80;99.90
23991;DHT22;12205;50.600;4.608;2022-11-15T11:16:41;12.90;99.90
23991;DHT22;12205;50.600;4.608;2022-11-15T11:19:31;12.90;99.90
23991;DHT22;12205;50.600;4.608;2022-11-15T11:22:11;13.00;99.90
23991;DHT22;12205;50.600;4.608;2022-11-15T11:24:49;13.00;99.90
23991;DHT22;12205;50.600;4.608;2022-11-15T11:27:35;13.00;99.90
23991;DHT22;12205;50.600;4.608;2022-11-15T11:30:14;13.10;99.90
23991;DHT22;12205;50.600;4.608;2022-11-15T11:32:54;13.20;99.90
23991;DHT22;12205;50.600;4.608;2022-11-15T11:35:32;13.30;99.90
23991;DHT22;12205;50.600;4.608;2022-11-15T11:38:19;13.20;99.90
23991;DHT22;12205;50.600;4.608;2022-11-15T11:41:07;13.20;99.90
23991;DHT22;12205;50.600;4.608;2022-11-15T11:43:50;13.10;99.90
23991;DHT22;12205;50.600;4.608;2022-11-15T11:46:35;13.10;99.90
23991;DHT22;12205;50.600;4.608;2022-11-15T11:49:16;13.10;99.90
23991;DHT22;12205;50.600;4.608;2022-11-15T11:51:53;13.00;99.90
23991;DHT22;12205;50.600;4.608;2022-11-15T11:54:28;13.00;99.90
23991;DHT22;12205;50.600;4.608;2022-11-15T11:57:06;13.00;99.90
23991;DHT22;12205;50.600;4.608;2022-11-15T11:59:43;13.00;99.90
23991;DHT22;12205;50.600;4.608;2022-11-15T12:02:18;13.00;99.90
23991;DHT22;12205;50.600;4.608;2022-11-15T12:04:54;13.00;99.90
23991;DHT22;12205;50.600;4.608;2022-11-15T12:07:32;13.00;99.90
23991;DHT22;12205;50.600;4.608;2022-11-15T12:10:05;13.10;99.90
23991;DHT22;12205;50.600;4.608;2022-11-15T12:12:50;13.20;99.90
23991;DHT22;12205;50.600;4.608;2022-11-15T12:15:26;13.20;99.90
23991;DHT22;12205;50.600;4.608;2022-11-15T12:17:57;13.30;99.90
23991;DHT22;12205;50.600;4.608;2022-11-15T12:20:29;13.30;99.90
23991;DHT22;12205;50.600;4.608;2022-11-15T12:23:06;13.30;99.90
23991;DHT22;12205;50.600;4.608;2022-11-15T12:25:45;13.30;99.90
23991;DHT22;12205;50.600;4.608;2022-11-15T12:28:22;13.30;99.90
23991;DHT22;12205;50.600;4.608;2022-11-15T12:31:02;13.30;99.90
23991;DHT22;12205;50.600;4.608;2022-11-15T12:33:35;13.30;99.90
23991;DHT22;12205;50.600;4.608;2022-11-15T12:36:08;13.40;99.90
23991;DHT22;12205;50.600;4.608;2022-11-15T12:38:55;13.40;99.90
23991;DHT22;12205;50.600;4.608;2022-11-15T12:41:25;13.40;99.90
23991;DHT22;12205;50.600;4.608;2022-11-15T12:43:54;13.50;99.90
23991;DHT22;12205;50.600;4.608;2022-11-15T12:47:02;13.70;99.90
23991;DHT22;12205;50.600;4.608;2022-11-15T12:49:47;13.80;99.90
23991;DHT22;12205;50.600;4.608;2022-11-15T12:52:15;13.80;99.90
23991;DHT22;12205;50.600;4.608;2022-11-15T12:54:58;13.90;99.90
23991;DHT22;12205;50.600;4.608;2022-11-15T12:57:41;14.10;99.90
23991;DHT22;12205;50.600;4.608;2022-11-15T13:00:43;14.10;99.90
23991;DHT22;12205;50.600;4.608;2022-11-15T13:03:26;14.00;99.90
23991;DHT22;12205;50.600;4.608;2022-11-15T13:06:04;14.10;99.90
23991;DHT22;12205;50.600;4.608;2022-11-15T13:08:42;14.10;99.90
23991;DHT22;12205;50.600;4.608;2022-11-15T13:11:43;14.10;99.90
23991;DHT22;12205;50.600;4.608;2022-11-15T13:14:42;14.00;99.90
23991;DHT22;12205;50.600;4.608;2022-11-15T13:17:35;13.90;99.90
23991;DHT22;12205;50.600;4.608;2022-11-15T13:20:30;14.00;99.90
23991;DHT22;12205;50.600;4.608;2022-11-15T13:23:11;13.90;99.90
23991;DHT22;12205;50.600;4.608;2022-11-15T13:26:10;13.80;99.90
23991;DHT22;12205;50.600;4.608;2022-11-15T13:28:45;13.80;99.90
23991;DHT22;12205;50.600;4.608;2022-11-15T13:31:25;13.80;99.90
23991;DHT22;12205;50.600;4.608;2022-11-15T13:34:21;13.70;99.90
23991;DHT22;12205;50.600;4.608;2022-11-15T13:36:52;13.70;99.90
23991;DHT22;12205;50.600;4.608;2022-11-15T13:39:27;13.60;99.90
23991;DHT22;12205;50.600;4.608;2022-11-15T13:41:56;13.60;99.90
23991;DHT22;12205;50.600;4.608;2022-11-15T13:44:28;13.60;99.90
23991;DHT22;12205;50.600;4.608;2022-11-15T13:47:02;13.60;99.90
23991;DHT22;12205;50.600;4.608;2022-11-15T13:49:31;13.60;99.90
23991;DHT22;12205;50.600;4.608;2022-11-15T13:52:00;13.50;99.90
23991;DHT22;12205;50.600;4.608;2022-11-15T13:54:34;13.50;99.90
23991;DHT22;12205;50.600;4.608;2022-11-15T13:57:08;13.50;99.90
23991;DHT22;12205;50.600;4.608;2022-11-15T13:59:46;13.50;99.90
23991;DHT22;12205;50.600;4.608;2022-11-15T14:02:17;13.50;99.90
23991;DHT22;12205;50.600;4.608;2022-11-15T14:04:48;13.50;99.90
23991;DHT22;12205;50.600;4.608;2022-11-15T14:07:19;13.50;99.90
23991;DHT22;12205;50.600;4.608;2022-11-15T14:09:47;13.40;99.90
23991;DHT22;12205;50.600;4.608;2022-11-15T14:12:27;13.40;99.90
23991;DHT22;12205;50.600;4.608;2022-11-15T14:14:59;13.40;99.90
23991;DHT22;12205;50.600;4.608;2022-11-15T14:17:36;13.40;99.90
23991;DHT22;12205;50.600;4.608;2022-11-15T14:20:37;13.40;99.90
23991;DHT22;12205;50.600;4.608;2022-11-15T14:23:19;13.40;99.90
23991;DHT22;12205;50.600;4.608;2022-11-15T14:25:52;13.40;99.90
23991;DHT22;12205;50.600;4.608;2022-11-15T14:28:31;13.40;99.90
23991;DHT22;12205;50.600;4.608;2022-11-15T14:31:10;13.40;99.90
23991;DHT22;12205;50.600;4.608;2022-11-15T14:33:39;13.40;99.90
23991;DHT22;12205;50.600;4.608;2022-11-15T14:36:11;13.40;99.90
23991;DHT22;12205;50.600;4.608;2022-11-15T14:38:40;13.40;99.90
23991;DHT22;12205;50.600;4.608;2022-11-15T14:41:18;13.40;99.90
23991;DHT22;12205;50.600;4.608;2022-11-15T14:43:47;13.40;99.90
23991;DHT22;12205;50.600;4.608;2022-11-15T14:46:16;13.40;99.90
23991;DHT22;12205;50.600;4.608;2022-11-15T14:48:44;13.40;99.90
23991;DHT22;12205;50.600;4.608;2022-11-15T14:51:12;13.30;99.90
23991;DHT22;12205;50.600;4.608;2022-11-15T14:53:41;13.30;99.90
23991;DHT22;12205;50.600;4.608;2022-11-15T14:56:09;13.30;99.90
23991;DHT22;12205;50.600;4.608;2022-11-15T14:58:36;13.20;99.90
23991;DHT22;12205;50.600;4.608;2022-11-15T15:01:12;13.20;99.90
23991;DHT22;12205;50.600;4.608;2022-11-15T15:03:50;13.20;99.90
23991;DHT22;12205;50.600;4.608;2022-11-15T15:06:19;13.20;99.90
23991;DHT22;12205;50.600;4.608;2022-11-15T15:08:46;13.20;99.90
23991;DHT22;12205;50.600;4.608;2022-11-15T15:11:20;13.20;99.90
23991;DHT22;12205;50.600;4.608;2022-11-15T15:13:49;13.20;99.90
23991;DHT22;12205;50.600;4.608;2022-11-15T15:16:16;13.10;99.90
23991;DHT22;12205;50.600;4.608;2022-11-15T15:18:43;13.00;99.90
23991;DHT22;12205;50.600;4.608;2022-11-15T15:21:20;13.00;99.90
23991;DHT22;12205;50.600;4.608;2022-11-15T15:23:48;13.00;99.90
23991;DHT22;12205;50.600;4.608;2022-11-15T15:26:16;12.90;99.90
23991;DHT22;12205;50.600;4.608;2022-11-15T15:28:43;12.90;99.90
23991;DHT22;12205;50.600;4.608;2022-11-15T15:31:10;12.90;99.90
23991;DHT22;12205;50.600;4.608;2022-11-15T15:33:37;12.80;99.90
23991;DHT22;12205;50.600;4.608;2022-11-15T15:36:07;12.80;99.90
23991;DHT22;12205;50.600;4.608;2022-11-15T15:38:38;12.70;99.90
23991;DHT22;12205;50.600;4.608;2022-11-15T15:41:09;12.70;99.90
23991;DHT22;12205;50.600;4.608;2022-11-15T15:43:37;12.60;99.90
23991;DHT22;12205;50.600;4.608;2022-11-15T15:46:07;12.50;99.90
23991;DHT22;12205;50.600;4.608;2022-11-15T15:48:36;12.50;99.90
23991;DHT22;12205;50.600;4.608;2022-11-15T15:51:05;12.50;99.90
23991;DHT22;12205;50.600;4.608;2022-11-15T15:53:33;12.50;99.90
23991;DHT22;12205;50.600;4.608;2022-11-15T15:56:01;12.40;99.90
23991;DHT22;12205;50.600;4.608;2022-11-15T15:58:29;12.40;99.90
23991;DHT22;12205;50.600;4.608;2022-11-15T16:00:57;12.40;99.90
23991;DHT22;12205;50.600;4.608;2022-11-15T16:03:24;12.40;99.90
23991;DHT22;12205;50.600;4.608;2022-11-15T16:05:53;12.40;99.90
23991;DHT22;12205;50.600;4.608;2022-11-15T16:08:21;12.40;99.90
23991;DHT22;12205;50.600;4.608;2022-11-15T16:10:50;12.30;99.90
23991;DHT22;12205;50.600;4.608;2022-11-15T16:13:19;12.30;99.90
23991;DHT22;12205;50.600;4.608;2022-11-15T16:15:48;12.30;99.90
23991;DHT22;12205;50.600;4.608;2022-11-15T16:18:18;12.30;99.90
23991;DHT22;12205;50.600;4.608;2022-11-15T16:20:47;12.30;99.90
23991;DHT22;12205;50.600;4.608;2022-11-15T16:23:18;12.20;99.90
23991;DHT22;12205;50.600;4.608;2022-11-15T16:25:51;12.30;99.90
23991;DHT22;12205;50.600;4.608;2022-11-15T16:28:24;12.30;99.90
23991;DHT22;12205;50.600;4.608;2022-11-15T16:31:00;12.20;99.90
23991;DHT22;12205;50.600;4.608;2022-11-15T16:33:29;12.20;99.90
23991;DHT22;12205;50.600;4.608;2022-11-15T16:35:56;12.20;99.90
23991;DHT22;12205;50.600;4.608;2022-11-15T16:38:23;12.20;99.90
23991;DHT22;12205;50.600;4.608;2022-11-15T16:40:50;12.30;99.90
23991;DHT22;12205;50.600;4.608;2022-11-15T16:43:17;12.20;99.90
23991;DHT22;12205;50.600;4.608;2022-11-15T16:45:46;12.30;99.90
23991;DHT22;12205;50.600;4.608;2022-11-15T16:48:21;12.30;99.90
23991;DHT22;12205;50.600;4.608;2022-11-15T16:50:50;12.40;99.90
23991;DHT22;12205;50.600;4.608;2022-11-15T16:53:20;12.40;99.90
23991;DHT22;12205;50.600;4.608;2022-11-15T16:55:48;12.40;99.90
23991;DHT22;12205;50.600;4.608;2022-11-15T16:58:15;12.40;99.90
23991;DHT22;12205;50.600;4.608;2022-11-15T17:00:42;12.40;99.90
23991;DHT22;12205;50.600;4.608;2022-11-15T17:03:10;12.40;99.90
23991;DHT22;12205;50.600;4.608;2022-11-15T17:05:38;12.40;99.90
23991;DHT22;12205;50.600;4.608;2022-11-15T17:08:05;12.40;99.90
23991;DHT22;12205;50.600;4.608;2022-11-15T17:10:33;12.40;99.90
23991;DHT22;12205;50.600;4.608;2022-11-15T17:13:00;12.40;99.90
23991;DHT22;12205;50.600;4.608;2022-11-15T17:15:27;12.40;99.90